sensor_id;sensor_type;location;lat;lon;timestamp;P1;durP1;ratioP1;P2;durP2;ratioP2
14613;SDS011;7393;51.446;6.800;2023-06-04T00:00:14;2.57;;;1.77;;
14613;SDS011;7393;51.446;6.800;2023-06-04T00:02:41;3.07;;;1.83;;
14613;SDS011;7393;51.446;6.800;2023-06-04T00:05:08;2.80;;;1.87;;
14613;SDS011;7393;51.446;6.800;2023-06-04T00:07:36;3.17;;;1.90;;
14613;SDS011;7393;51.446;6.800;2023-06-04T00:10:05;1.90;;;1.70;;
14613;SDS011;7393;51.446;6.800;2023-06-04T00:12:32;3.73;;;1.70;;
14613;SDS011;7393;51.446;6.800;2023-06-04T00:14:59;5.00;;;2.17;;
14613;SDS011;7393;51.446;6.800;2023-06-04T00:17:26;3.80;;;2.30;;
14613;SDS011;7393;51.446;6.800;2023-06-04T00:19:53;4.90;;;2.63;;
14613;SDS011;7393;51.446;6.800;2023-06-04T00:22:19;4.57;;;2.80;;
14613;SDS011;7393;51.446;6.800;2023-06-04T00:24:46;3.63;;;2.73;;
14613;SDS011;7393;51.446;6.800;2023-06-04T00:27:14;3.20;;;2.40;;
14613;SDS011;7393;51.446;6.800;2023-06-04T00:29:41;4.43;;;2.60;;
14613;SDS011;7393;51.446;6.800;2023-06-04T00:32:09;3.80;;;2.50;;
14613;SDS011;7393;51.446;6.800;2023-06-04T00:34:36;4.87;;;2.60;;
14613;SDS011;7393;51.446;6.800;2023-06-04T00:37:03;3.20;;;2.10;;
14613;SDS011;7393;51.446;6.800;2023-06-04T00:39:30;3.10;;;2.30;;
14613;SDS011;7393;51.446;6.800;2023-06-04T00:41:56;3.30;;;2.27;;
14613;SDS011;7393;51.446;6.800;2023-06-04T00:44:25;2.80;;;2.20;;
14613;SDS011;7393;51.446;6.800;2023-06-04T00:46:52;3.77;;;2.30;;
14613;SDS011;7393;51.446;6.800;2023-06-04T00:49:19;4.47;;;2.27;;
14613;SDS011;7393;51.446;6.800;2023-06-04T00:51:46;2.30;;;2.10;;
14613;SDS011;7393;51.446;6.800;2023-06-04T00:54:13;4.57;;;2.20;;
14613;SDS011;7393;51.446;6.800;2023-06-04T00:56:43;3.47;;;2.30;;
14613;SDS011;7393;51.446;6.800;2023-06-04T00:59:09;5.07;;;2.33;;
14613;SDS011;7393;51.446;6.800;2023-06-04T01:01:39;4.17;;;2.40;;
14613;SDS011;7393;51.446;6.800;2023-06-04T01:04:12;3.67;;;2.27;;
14613;SDS011;7393;51.446;6.800;2023-06-04T01:06:45;5.23;;;2.37;;
14613;SDS011;7393;51.446;6.800;2023-06-04T01:09:16;4.50;;;2.03;;
14613;SDS011;7393;51.446;6.800;2023-06-04T01:11:44;2.83;;;2.30;;
14613;SDS011;7393;51.446;6.800;2023-06-04T01:14:11;3.43;;;2.20;;
14613;SDS011;7393;51.446;6.800;2023-06-04T01:16:42;4.37;;;2.30;;
14613;SDS011;7393;51.446;6.800;2023-06-04T01:19:30;5.27;;;3.23;;
14613;SDS011;7393;51.446;6.800;2023-06-04T01:22:33;2.30;;;1.90;;
14613;SDS011;7393;51.446;6.800;2023-06-04T01:25:05;4.17;;;1.70;;
14613;SDS011;7393;51.446;6.800;2023-06-04T01:27:44;2.73;;;1.87;;
14613;SDS011;7393;51.446;6.800;2023-06-04T01:30:14;3.90;;;1.77;;
14613;SDS011;7393;51.446;6.800;2023-06-04T01:32:42;5.77;;;1.80;;
14613;SDS011;7393;51.446;6.800;2023-06-04T01:35:11;5.47;;;2.83;;
14613;SDS011;7393;51.446;6.800;2023-06-04T01:37:38;4.03;;;2.60;;
14613;SDS011;7393;51.446;6.800;2023-06-04T01:40:05;3.10;;;1.97;;
14613;SDS011;7393;51.446;6.800;2023-06-04T01:42:34;2.87;;;2.40;;
14613;SDS011;7393;51.446;6.800;2023-06-04T01:45:01;3.00;;;2.00;;
14613;SDS011;7393;51.446;6.800;2023-06-04T01:47:28;2.17;;;1.50;;
14613;SDS011;7393;51.446;6.800;2023-06-04T01:49:56;2.63;;;1.60;;
14613;SDS011;7393;51.446;6.800;2023-06-04T01:52:23;1.73;;;1.50;;
14613;SDS011;7393;51.446;6.800;2023-06-04T01:54:50;4.17;;;2.00;;
14613;SDS011;7393;51.446;6.800;2023-06-04T01:57:17;2.13;;;1.30;;
14613;SDS011;7393;51.446;6.800;2023-06-04T01:59:45;4.37;;;1.50;;
14613;SDS011;7393;51.446;6.800;2023-06-04T02:02:12;2.23;;;1.53;;
14613;SDS011;7393;51.446;6.800;2023-06-04T02:04:38;3.53;;;1.53;;
14613;SDS011;7393;51.446;6.800;2023-06-04T02:07:08;1.97;;;1.30;;
14613;SDS011;7393;51.446;6.800;2023-06-04T02:09:35;2.33;;;1.53;;
14613;SDS011;7393;51.446;6.800;2023-06-04T02:12:02;4.00;;;1.47;;
14613;SDS011;7393;51.446;6.800;2023-06-04T02:14:30;2.10;;;1.63;;
14613;SDS011;7393;51.446;6.800;2023-06-04T02:16:56;2.53;;;1.60;;
14613;SDS011;7393;51.446;6.800;2023-06-04T02:19:23;3.67;;;1.60;;
14613;SDS011;7393;51.446;6.800;2023-06-04T02:21:52;3.60;;;1.40;;
14613;SDS011;7393;51.446;6.800;2023-06-04T02:24:20;3.83;;;1.73;;
14613;SDS011;7393;51.446;6.800;2023-06-04T02:26:47;3.70;;;1.77;;
14613;SDS011;7393;51.446;6.800;2023-06-04T02:29:13;4.33;;;1.60;;
14613;SDS011;7393;51.446;6.800;2023-06-04T02:31:40;1.63;;;1.37;;
14613;SDS011;7393;51.446;6.800;2023-06-04T02:34:07;3.83;;;1.50;;
14613;SDS011;7393;51.446;6.800;2023-06-04T02:36:34;4.80;;;1.67;;
14613;SDS011;7393;51.446;6.800;2023-06-04T02:39:00;2.13;;;1.43;;
14613;SDS011;7393;51.446;6.800;2023-06-04T02:41:29;2.77;;;1.60;;
14613;SDS011;7393;51.446;6.800;2023-06-04T02:43:56;3.10;;;1.50;;
14613;SDS011;7393;51.446;6.800;2023-06-04T02:46:22;2.67;;;1.60;;
14613;SDS011;7393;51.446;6.800;2023-06-04T02:48:50;3.83;;;1.77;;
14613;SDS011;7393;51.446;6.800;2023-06-04T02:51:17;2.73;;;1.60;;
14613;SDS011;7393;51.446;6.800;2023-06-04T02:53:44;2.80;;;1.70;;
14613;SDS011;7393;51.446;6.800;2023-06-04T02:56:11;3.63;;;1.90;;
14613;SDS011;7393;51.446;6.800;2023-06-04T02:58:49;2.90;;;1.40;;
14613;SDS011;7393;51.446;6.800;2023-06-04T03:01:19;2.53;;;1.67;;
14613;SDS011;7393;51.446;6.800;2023-06-04T03:03:46;3.80;;;2.13;;
14613;SDS011;7393;51.446;6.800;2023-06-04T03:06:14;2.73;;;1.80;;
14613;SDS011;7393;51.446;6.800;2023-06-04T03:08:42;2.53;;;1.50;;
14613;SDS011;7393;51.446;6.800;2023-06-04T03:11:10;2.40;;;1.70;;
14613;SDS011;7393;51.446;6.800;2023-06-04T03:13:37;2.33;;;1.60;;
14613;SDS011;7393;51.446;6.800;2023-06-04T03:16:06;2.60;;;1.80;;
14613;SDS011;7393;51.446;6.800;2023-06-04T03:18:35;3.53;;;2.53;;
14613;SDS011;7393;51.446;6.800;2023-06-04T03:21:02;3.33;;;1.90;;
14613;SDS011;7393;51.446;6.800;2023-06-04T03:23:29;3.40;;;1.80;;
14613;SDS011;7393;51.446;6.800;2023-06-04T03:25:56;2.20;;;1.70;;
14613;SDS011;7393;51.446;6.800;2023-06-04T03:28:23;4.13;;;2.00;;
14613;SDS011;7393;51.446;6.800;2023-06-04T03:30:50;4.13;;;1.93;;
14613;SDS011;7393;51.446;6.800;2023-06-04T03:33:18;4.07;;;1.57;;
14613;SDS011;7393;51.446;6.800;2023-06-04T03:35:45;2.57;;;1.87;;
14613;SDS011;7393;51.446;6.800;2023-06-04T03:38:13;4.13;;;1.90;;
14613;SDS011;7393;51.446;6.800;2023-06-04T03:40:40;4.27;;;2.00;;
14613;SDS011;7393;51.446;6.800;2023-06-04T03:43:06;3.20;;;1.70;;
14613;SDS011;7393;51.446;6.800;2023-06-04T03:45:33;3.40;;;1.77;;
14613;SDS011;7393;51.446;6.800;2023-06-04T03:48:00;5.77;;;2.10;;
14613;SDS011;7393;51.446;6.800;2023-06-04T03:50:28;4.47;;;2.20;;
14613;SDS011;7393;51.446;6.800;2023-06-04T03:52:56;2.83;;;1.83;;
14613;SDS011;7393;51.446;6.800;2023-06-04T03:55:22;2.60;;;1.83;;
14613;SDS011;7393;51.446;6.800;2023-06-04T03:57:50;2.30;;;2.03;;
14613;SDS011;7393;51.446;6.800;2023-06-04T04:00:17;4.10;;;2.20;;
14613;SDS011;7393;51.446;6.800;2023-06-04T04:02:45;3.57;;;2.10;;
14613;SDS011;7393;51.446;6.800;2023-06-04T04:05:12;2.40;;;1.80;;
14613;SDS011;7393;51.446;6.800;2023-06-04T04:07:41;6.67;;;2.57;;
14613;SDS011;7393;51.446;6.800;2023-06-04T04:10:08;3.57;;;2.37;;
14613;SDS011;7393;51.446;6.800;2023-06-04T04:12:36;3.37;;;1.87;;
14613;SDS011;7393;51.446;6.800;2023-06-04T04:15:03;2.37;;;2.17;;
14613;SDS011;7393;51.446;6.800;2023-06-04T04:17:30;3.37;;;2.00;;
14613;SDS011;7393;51.446;6.800;2023-06-04T04:19:57;2.77;;;2.13;;
14613;SDS011;7393;51.446;6.800;2023-06-04T04:22:24;3.17;;;2.00;;
14613;SDS011;7393;51.446;6.800;2023-06-04T04:24:52;4.27;;;2.17;;
14613;SDS011;7393;51.446;6.800;2023-06-04T04:27:19;3.60;;;2.10;;
14613;SDS011;7393;51.446;6.800;2023-06-04T04:29:45;4.03;;;2.17;;
14613;SDS011;7393;51.446;6.800;2023-06-04T04:32:13;3.80;;;1.90;;
14613;SDS011;7393;51.446;6.800;2023-06-04T04:34:50;2.43;;;2.17;;
14613;SDS011;7393;51.446;6.800;2023-06-04T04:37:19;2.83;;;1.93;;
14613;SDS011;7393;51.446;6.800;2023-06-04T04:39:47;2.10;;;1.80;;
14613;SDS011;7393;51.446;6.800;2023-06-04T04:42:18;4.27;;;2.20;;
14613;SDS011;7393;51.446;6.800;2023-06-04T04:44:45;5.33;;;1.83;;
14613;SDS011;7393;51.446;6.800;2023-06-04T04:47:13;4.27;;;2.20;;
14613;SDS011;7393;51.446;6.800;2023-06-04T04:49:41;4.40;;;2.10;;
14613;SDS011;7393;51.446;6.800;2023-06-04T04:52:07;6.00;;;2.50;;
14613;SDS011;7393;51.446;6.800;2023-06-04T04:54:34;3.03;;;1.90;;
14613;SDS011;7393;51.446;6.800;2023-06-04T04:57:01;2.87;;;2.10;;
14613;SDS011;7393;51.446;6.800;2023-06-04T04:59:29;3.43;;;2.13;;
14613;SDS011;7393;51.446;6.800;2023-06-04T05:01:56;4.17;;;1.93;;
14613;SDS011;7393;51.446;6.800;2023-06-04T05:04:23;3.10;;;1.83;;
14613;SDS011;7393;51.446;6.800;2023-06-04T05:06:50;2.30;;;2.10;;
14613;SDS011;7393;51.446;6.800;2023-06-04T05:09:16;3.27;;;2.20;;
14613;SDS011;7393;51.446;6.800;2023-06-04T05:11:43;3.27;;;1.90;;
14613;SDS011;7393;51.446;6.800;2023-06-04T05:14:10;3.57;;;2.00;;
14613;SDS011;7393;51.446;6.800;2023-06-04T05:16:38;2.33;;;1.90;;
14613;SDS011;7393;51.446;6.800;2023-06-04T05:19:06;2.80;;;1.90;;
14613;SDS011;7393;51.446;6.800;2023-06-04T05:21:33;4.23;;;1.77;;
14613;SDS011;7393;51.446;6.800;2023-06-04T05:24:01;2.30;;;1.90;;
14613;SDS011;7393;51.446;6.800;2023-06-04T05:26:28;2.40;;;1.80;;
14613;SDS011;7393;51.446;6.800;2023-06-04T05:28:55;4.13;;;2.10;;
14613;SDS011;7393;51.446;6.800;2023-06-04T05:31:23;2.40;;;2.10;;
14613;SDS011;7393;51.446;6.800;2023-06-04T05:33:53;4.90;;;2.17;;
14613;SDS011;7393;51.446;6.800;2023-06-04T05:36:19;2.00;;;1.80;;
14613;SDS011;7393;51.446;6.800;2023-06-04T05:38:46;3.97;;;1.60;;
14613;SDS011;7393;51.446;6.800;2023-06-04T05:41:13;2.10;;;1.90;;
14613;SDS011;7393;51.446;6.800;2023-06-04T05:43:40;2.43;;;1.90;;
14613;SDS011;7393;51.446;6.800;2023-06-04T05:46:09;2.97;;;2.03;;
14613;SDS011;7393;51.446;6.800;2023-06-04T05:48:36;3.70;;;2.10;;
14613;SDS011;7393;51.446;6.800;2023-06-04T05:51:04;2.87;;;1.73;;
14613;SDS011;7393;51.446;6.800;2023-06-04T05:53:32;3.47;;;2.03;;
14613;SDS011;7393;51.446;6.800;2023-06-04T05:55:59;2.33;;;2.13;;
14613;SDS011;7393;51.446;6.800;2023-06-04T05:58:26;3.30;;;2.50;;
14613;SDS011;7393;51.446;6.800;2023-06-04T06:00:53;3.43;;;2.10;;
14613;SDS011;7393;51.446;6.800;2023-06-04T06:03:21;2.63;;;2.10;;
14613;SDS011;7393;51.446;6.800;2023-06-04T06:05:48;3.57;;;2.10;;
14613;SDS011;7393;51.446;6.800;2023-06-04T06:08:16;5.10;;;2.43;;
14613;SDS011;7393;51.446;6.800;2023-06-04T06:10:43;3.80;;;2.10;;
14613;SDS011;7393;51.446;6.800;2023-06-04T06:13:10;5.60;;;2.27;;
14613;SDS011;7393;51.446;6.800;2023-06-04T06:15:37;3.30;;;2.33;;
14613;SDS011;7393;51.446;6.800;2023-06-04T06:18:04;5.57;;;2.30;;
14613;SDS011;7393;51.446;6.800;2023-06-04T06:20:31;4.23;;;2.67;;
14613;SDS011;7393;51.446;6.800;2023-06-04T06:23:00;3.17;;;2.43;;
14613;SDS011;7393;51.446;6.800;2023-06-04T06:25:33;3.10;;;2.47;;
14613;SDS011;7393;51.446;6.800;2023-06-04T06:28:00;5.07;;;2.73;;
14613;SDS011;7393;51.446;6.800;2023-06-04T06:30:27;3.73;;;2.20;;
14613;SDS011;7393;51.446;6.800;2023-06-04T06:32:53;2.97;;;1.90;;
14613;SDS011;7393;51.446;6.800;2023-06-04T06:35:21;3.67;;;2.17;;
14613;SDS011;7393;51.446;6.800;2023-06-04T06:37:48;2.63;;;2.00;;
14613;SDS011;7393;51.446;6.800;2023-06-04T06:40:15;3.50;;;2.40;;
14613;SDS011;7393;51.446;6.800;2023-06-04T06:42:47;4.33;;;2.17;;
14613;SDS011;7393;51.446;6.800;2023-06-04T06:45:14;2.17;;;1.80;;
14613;SDS011;7393;51.446;6.800;2023-06-04T06:47:41;3.30;;;2.03;;
14613;SDS011;7393;51.446;6.800;2023-06-04T06:50:08;4.13;;;2.00;;
14613;SDS011;7393;51.446;6.800;2023-06-04T06:52:35;2.83;;;1.97;;
14613;SDS011;7393;51.446;6.800;2023-06-04T06:55:02;2.53;;;1.90;;
14613;SDS011;7393;51.446;6.800;2023-06-04T06:57:30;1.90;;;1.70;;
14613;SDS011;7393;51.446;6.800;2023-06-04T06:59:59;1.97;;;1.70;;
14613;SDS011;7393;51.446;6.800;2023-06-04T07:02:26;2.27;;;1.80;;
14613;SDS011;7393;51.446;6.800;2023-06-04T07:04:53;3.03;;;1.50;;
14613;SDS011;7393;51.446;6.800;2023-06-04T07:07:20;4.17;;;1.70;;
14613;SDS011;7393;51.446;6.800;2023-06-04T07:09:47;3.10;;;1.97;;
14613;SDS011;7393;51.446;6.800;2023-06-04T07:12:14;3.10;;;2.00;;
14613;SDS011;7393;51.446;6.800;2023-06-04T07:14:41;3.00;;;1.70;;
14613;SDS011;7393;51.446;6.800;2023-06-04T07:17:10;1.90;;;1.70;;
14613;SDS011;7393;51.446;6.800;2023-06-04T07:19:37;2.33;;;1.90;;
14613;SDS011;7393;51.446;6.800;2023-06-04T07:22:03;3.20;;;1.57;;
14613;SDS011;7393;51.446;6.800;2023-06-04T07:24:30;2.50;;;1.83;;
14613;SDS011;7393;51.446;6.800;2023-06-04T07:26:57;1.80;;;1.60;;
14613;SDS011;7393;51.446;6.800;2023-06-04T07:29:24;3.80;;;1.90;;
14613;SDS011;7393;51.446;6.800;2023-06-04T07:31:51;2.60;;;1.80;;
14613;SDS011;7393;51.446;6.800;2023-06-04T07:34:19;1.70;;;1.60;;
14613;SDS011;7393;51.446;6.800;2023-06-04T07:36:46;1.67;;;1.50;;
14613;SDS011;7393;51.446;6.800;2023-06-04T07:39:13;2.87;;;1.67;;
14613;SDS011;7393;51.446;6.800;2023-06-04T07:41:40;2.43;;;1.83;;
14613;SDS011;7393;51.446;6.800;2023-06-04T07:44:07;2.33;;;1.60;;
14613;SDS011;7393;51.446;6.800;2023-06-04T07:46:33;2.63;;;1.83;;
14613;SDS011;7393;51.446;6.800;2023-06-04T07:49:00;2.37;;;1.70;;
14613;SDS011;7393;51.446;6.800;2023-06-04T07:51:28;3.60;;;1.63;;
14613;SDS011;7393;51.446;6.800;2023-06-04T07:53:55;3.73;;;2.00;;
14613;SDS011;7393;51.446;6.800;2023-06-04T07:56:22;4.30;;;1.80;;
14613;SDS011;7393;51.446;6.800;2023-06-04T07:58:50;2.00;;;1.70;;
14613;SDS011;7393;51.446;6.800;2023-06-04T08:01:17;1.97;;;1.40;;
14613;SDS011;7393;51.446;6.800;2023-06-04T08:03:44;1.60;;;1.50;;
14613;SDS011;7393;51.446;6.800;2023-06-04T08:06:11;2.27;;;1.43;;
14613;SDS011;7393;51.446;6.800;2023-06-04T08:08:42;3.63;;;1.60;;
14613;SDS011;7393;51.446;6.800;2023-06-04T08:11:10;2.97;;;1.53;;
14613;SDS011;7393;51.446;6.800;2023-06-04T08:13:38;2.63;;;1.83;;
14613;SDS011;7393;51.446;6.800;2023-06-04T08:16:05;4.40;;;1.97;;
14613;SDS011;7393;51.446;6.800;2023-06-04T08:18:32;3.30;;;2.00;;
14613;SDS011;7393;51.446;6.800;2023-06-04T08:21:00;2.13;;;1.73;;
14613;SDS011;7393;51.446;6.800;2023-06-04T08:23:26;2.90;;;1.90;;
14613;SDS011;7393;51.446;6.800;2023-06-04T08:25:55;2.50;;;1.87;;
14613;SDS011;7393;51.446;6.800;2023-06-04T08:28:21;2.97;;;1.93;;
14613;SDS011;7393;51.446;6.800;2023-06-04T08:30:48;3.63;;;1.60;;
14613;SDS011;7393;51.446;6.800;2023-06-04T08:33:15;2.27;;;1.60;;
14613;SDS011;7393;51.446;6.800;2023-06-04T08:35:42;2.50;;;1.73;;
14613;SDS011;7393;51.446;6.800;2023-06-04T08:38:09;3.43;;;1.70;;
14613;SDS011;7393;51.446;6.800;2023-06-04T08:40:35;2.13;;;1.63;;
14613;SDS011;7393;51.446;6.800;2023-06-04T08:43:03;4.43;;;1.90;;
14613;SDS011;7393;51.446;6.800;2023-06-04T08:45:30;2.57;;;1.77;;
14613;SDS011;7393;51.446;6.800;2023-06-04T08:47:59;2.93;;;1.90;;
14613;SDS011;7393;51.446;6.800;2023-06-04T08:50:26;3.37;;;2.27;;
14613;SDS011;7393;51.446;6.800;2023-06-04T08:52:54;5.33;;;2.00;;
14613;SDS011;7393;51.446;6.800;2023-06-04T08:55:22;3.93;;;1.90;;
14613;SDS011;7393;51.446;6.800;2023-06-04T08:57:49;2.00;;;1.67;;
14613;SDS011;7393;51.446;6.800;2023-06-04T09:00:18;2.90;;;1.50;;
14613;SDS011;7393;51.446;6.800;2023-06-04T09:02:47;4.13;;;2.00;;
14613;SDS011;7393;51.446;6.800;2023-06-04T09:05:18;3.77;;;1.83;;
14613;SDS011;7393;51.446;6.800;2023-06-04T09:07:47;4.53;;;1.93;;
14613;SDS011;7393;51.446;6.800;2023-06-04T09:10:17;2.93;;;1.90;;
14613;SDS011;7393;51.446;6.800;2023-06-04T09:12:46;2.63;;;1.50;;
14613;SDS011;7393;51.446;6.800;2023-06-04T09:15:15;2.87;;;1.40;;
14613;SDS011;7393;51.446;6.800;2023-06-04T09:17:43;2.40;;;1.60;;
14613;SDS011;7393;51.446;6.800;2023-06-04T09:20:18;2.33;;;1.80;;
14613;SDS011;7393;51.446;6.800;2023-06-04T09:22:47;2.47;;;1.70;;
14613;SDS011;7393;51.446;6.800;2023-06-04T09:25:20;2.50;;;1.60;;
14613;SDS011;7393;51.446;6.800;2023-06-04T09:27:49;1.47;;;1.37;;
14613;SDS011;7393;51.446;6.800;2023-06-04T09:30:16;2.20;;;1.57;;
14613;SDS011;7393;51.446;6.800;2023-06-04T09:32:45;3.70;;;1.90;;
14613;SDS011;7393;51.446;6.800;2023-06-04T09:35:12;2.97;;;1.80;;
14613;SDS011;7393;51.446;6.800;2023-06-04T09:37:40;3.70;;;1.80;;
14613;SDS011;7393;51.446;6.800;2023-06-04T09:40:08;1.70;;;1.60;;
14613;SDS011;7393;51.446;6.800;2023-06-04T09:42:42;2.83;;;1.40;;
14613;SDS011;7393;51.446;6.800;2023-06-04T09:45:09;3.13;;;1.60;;
14613;SDS011;7393;51.446;6.800;2023-06-04T09:47:40;2.07;;;1.50;;
14613;SDS011;7393;51.446;6.800;2023-06-04T09:50:10;2.10;;;1.60;;
14613;SDS011;7393;51.446;6.800;2023-06-04T09:52:37;3.63;;;1.40;;
14613;SDS011;7393;51.446;6.800;2023-06-04T09:55:15;1.90;;;1.33;;
14613;SDS011;7393;51.446;6.800;2023-06-04T09:57:46;3.97;;;1.80;;
14613;SDS011;7393;51.446;6.800;2023-06-04T10:00:14;2.03;;;1.50;;
14613;SDS011;7393;51.446;6.800;2023-06-04T10:02:44;2.40;;;1.80;;
14613;SDS011;7393;51.446;6.800;2023-06-04T10:05:13;2.00;;;1.57;;
14613;SDS011;7393;51.446;6.800;2023-06-04T10:07:40;3.10;;;1.70;;
14613;SDS011;7393;51.446;6.800;2023-06-04T10:10:10;3.17;;;1.80;;
14613;SDS011;7393;51.446;6.800;2023-06-04T10:12:54;4.40;;;1.80;;
14613;SDS011;7393;51.446;6.800;2023-06-04T10:15:31;2.50;;;1.77;;
14613;SDS011;7393;51.446;6.800;2023-06-04T10:17:59;2.80;;;1.80;;
14613;SDS011;7393;51.446;6.800;2023-06-04T10:20:28;3.40;;;2.00;;
14613;SDS011;7393;51.446;6.800;2023-06-04T10:22:56;4.10;;;1.90;;
14613;SDS011;7393;51.446;6.800;2023-06-04T10:25:26;1.97;;;1.60;;
14613;SDS011;7393;51.446;6.800;2023-06-04T10:27:55;1.80;;;1.60;;
14613;SDS011;7393;51.446;6.800;2023-06-04T10:30:23;2.43;;;1.57;;
14613;SDS011;7393;51.446;6.800;2023-06-04T10:32:50;2.90;;;1.73;;
14613;SDS011;7393;51.446;6.800;2023-06-04T10:35:17;2.27;;;1.70;;
14613;SDS011;7393;51.446;6.800;2023-06-04T10:38:04;2.20;;;1.63;;
14613;SDS011;7393;51.446;6.800;2023-06-04T10:40:33;1.57;;;1.47;;
14613;SDS011;7393;51.446;6.800;2023-06-04T10:43:04;1.70;;;1.50;;
14613;SDS011;7393;51.446;6.800;2023-06-04T10:45:31;3.30;;;1.77;;
14613;SDS011;7393;51.446;6.800;2023-06-04T10:48:01;3.77;;;1.67;;
14613;SDS011;7393;51.446;6.800;2023-06-04T10:50:29;2.83;;;1.80;;
14613;SDS011;7393;51.446;6.800;2023-06-04T10:52:56;2.30;;;1.70;;
14613;SDS011;7393;51.446;6.800;2023-06-04T10:55:25;3.17;;;1.73;;
14613;SDS011;7393;51.446;6.800;2023-06-04T10:57:54;4.43;;;1.70;;
14613;SDS011;7393;51.446;6.800;2023-06-04T11:00:29;2.87;;;1.70;;
14613;SDS011;7393;51.446;6.800;2023-06-04T11:03:01;1.87;;;1.67;;
14613;SDS011;7393;51.446;6.800;2023-06-04T11:05:33;1.73;;;1.53;;
14613;SDS011;7393;51.446;6.800;2023-06-04T11:08:01;3.10;;;1.60;;
14613;SDS011;7393;51.446;6.800;2023-06-04T11:10:32;3.30;;;1.80;;
14613;SDS011;7393;51.446;6.800;2023-06-04T11:13:01;2.43;;;1.80;;
14613;SDS011;7393;51.446;6.800;2023-06-04T11:15:37;3.67;;;1.70;;
14613;SDS011;7393;51.446;6.800;2023-06-04T11:18:04;1.87;;;1.77;;
14613;SDS011;7393;51.446;6.800;2023-06-04T11:20:31;3.23;;;1.80;;
14613;SDS011;7393;51.446;6.800;2023-06-04T11:22:58;1.93;;;1.70;;
14613;SDS011;7393;51.446;6.800;2023-06-04T11:25:28;2.10;;;1.80;;
14613;SDS011;7393;51.446;6.800;2023-06-04T11:27:57;4.50;;;1.80;;
14613;SDS011;7393;51.446;6.800;2023-06-04T11:30:24;2.05;;;1.70;;
14613;SDS011;7393;51.446;6.800;2023-06-04T11:32:59;3.83;;;1.80;;
14613;SDS011;7393;51.446;6.800;2023-06-04T11:35:26;2.43;;;2.00;;
14613;SDS011;7393;51.446;6.800;2023-06-04T11:37:53;3.83;;;2.00;;
14613;SDS011;7393;51.446;6.800;2023-06-04T11:40:20;1.73;;;1.63;;
14613;SDS011;7393;51.446;6.800;2023-06-04T11:42:47;5.27;;;1.97;;
14613;SDS011;7393;51.446;6.800;2023-06-04T11:45:17;3.23;;;2.00;;
14613;SDS011;7393;51.446;6.800;2023-06-04T11:47:47;2.78;;;2.08;;
14613;SDS011;7393;51.446;6.800;2023-06-04T11:50:15;3.27;;;1.90;;
14613;SDS011;7393;51.446;6.800;2023-06-04T11:52:42;2.58;;;2.38;;
14613;SDS011;7393;51.446;6.800;2023-06-04T11:55:09;2.65;;;2.00;;
14613;SDS011;7393;51.446;6.800;2023-06-04T11:57:37;2.15;;;1.88;;
14613;SDS011;7393;51.446;6.800;2023-06-04T12:00:05;3.97;;;1.92;;
14613;SDS011;7393;51.446;6.800;2023-06-04T12:02:36;3.20;;;1.70;;
14613;SDS011;7393;51.446;6.800;2023-06-04T12:05:11;8.02;;;2.20;;
14613;SDS011;7393;51.446;6.800;2023-06-04T12:07:39;3.08;;;1.80;;
14613;SDS011;7393;51.446;6.800;2023-06-04T12:10:06;2.85;;;1.83;;
14613;SDS011;7393;51.446;6.800;2023-06-04T12:12:33;2.05;;;1.80;;
14613;SDS011;7393;51.446;6.800;2023-06-04T12:15:00;2.22;;;1.92;;
14613;SDS011;7393;51.446;6.800;2023-06-04T12:17:28;3.27;;;1.70;;
14613;SDS011;7393;51.446;6.800;2023-06-04T12:19:56;4.55;;;1.80;;
14613;SDS011;7393;51.446;6.800;2023-06-04T12:22:24;1.85;;;1.70;;
14613;SDS011;7393;51.446;6.800;2023-06-04T12:24:52;3.55;;;1.63;;
14613;SDS011;7393;51.446;6.800;2023-06-04T12:27:20;4.55;;;1.70;;
14613;SDS011;7393;51.446;6.800;2023-06-04T12:29:58;4.60;;;1.80;;
14613;SDS011;7393;51.446;6.800;2023-06-04T12:32:26;3.08;;;2.10;;
14613;SDS011;7393;51.446;6.800;2023-06-04T12:34:54;3.08;;;1.90;;
14613;SDS011;7393;51.446;6.800;2023-06-04T12:37:22;5.60;;;1.70;;
14613;SDS011;7393;51.446;6.800;2023-06-04T12:39:51;4.95;;;2.00;;
14613;SDS011;7393;51.446;6.800;2023-06-04T12:42:17;3.03;;;1.75;;
14613;SDS011;7393;51.446;6.800;2023-06-04T12:44:45;2.97;;;2.00;;
14613;SDS011;7393;51.446;6.800;2023-06-04T12:47:12;3.47;;;2.10;;
14613;SDS011;7393;51.446;6.800;2023-06-04T12:49:39;2.78;;;1.80;;
14613;SDS011;7393;51.446;6.800;2023-06-04T12:52:06;3.88;;;2.08;;
14613;SDS011;7393;51.446;6.800;2023-06-04T12:54:34;4.32;;;2.40;;
14613;SDS011;7393;51.446;6.800;2023-06-04T12:57:01;2.25;;;1.80;;
14613;SDS011;7393;51.446;6.800;2023-06-04T12:59:28;2.47;;;2.10;;
14613;SDS011;7393;51.446;6.800;2023-06-04T13:01:57;3.53;;;2.10;;
14613;SDS011;7393;51.446;6.800;2023-06-04T13:04:24;2.40;;;2.20;;
14613;SDS011;7393;51.446;6.800;2023-06-04T13:06:51;4.60;;;1.88;;
14613;SDS011;7393;51.446;6.800;2023-06-04T13:09:23;2.10;;;1.90;;
14613;SDS011;7393;51.446;6.800;2023-06-04T13:11:52;3.63;;;2.13;;
14613;SDS011;7393;51.446;6.800;2023-06-04T13:14:18;2.72;;;2.40;;
14613;SDS011;7393;51.446;6.800;2023-06-04T13:16:45;2.33;;;2.08;;
14613;SDS011;7393;51.446;6.800;2023-06-04T13:19:13;2.33;;;2.08;;
14613;SDS011;7393;51.446;6.800;2023-06-04T13:21:40;3.08;;;2.00;;
14613;SDS011;7393;51.446;6.800;2023-06-04T13:24:09;3.65;;;2.17;;
14613;SDS011;7393;51.446;6.800;2023-06-04T13:26:36;4.18;;;2.13;;
14613;SDS011;7393;51.446;6.800;2023-06-04T13:29:05;2.78;;;2.08;;
14613;SDS011;7393;51.446;6.800;2023-06-04T13:31:32;3.72;;;2.40;;
14613;SDS011;7393;51.446;6.800;2023-06-04T13:33:59;3.00;;;2.15;;
14613;SDS011;7393;51.446;6.800;2023-06-04T13:36:26;6.10;;;2.30;;
14613;SDS011;7393;51.446;6.800;2023-06-04T13:38:52;2.67;;;2.05;;
14613;SDS011;7393;51.446;6.800;2023-06-04T13:41:20;3.08;;;2.03;;
14613;SDS011;7393;51.446;6.800;2023-06-04T13:43:47;3.10;;;2.00;;
14613;SDS011;7393;51.446;6.800;2023-06-04T13:46:15;2.10;;;1.90;;
14613;SDS011;7393;51.446;6.800;2023-06-04T13:48:42;3.67;;;2.10;;
14613;SDS011;7393;51.446;6.800;2023-06-04T13:51:09;2.45;;;1.90;;
14613;SDS011;7393;51.446;6.800;2023-06-04T13:53:36;3.75;;;1.80;;
14613;SDS011;7393;51.446;6.800;2023-06-04T13:56:03;3.35;;;1.90;;
14613;SDS011;7393;51.446;6.800;2023-06-04T13:58:30;3.05;;;1.90;;
14613;SDS011;7393;51.446;6.800;2023-06-04T14:00:57;2.10;;;1.90;;
14613;SDS011;7393;51.446;6.800;2023-06-04T14:03:25;3.10;;;2.28;;
14613;SDS011;7393;51.446;6.800;2023-06-04T14:05:51;2.55;;;2.33;;
14613;SDS011;7393;51.446;6.800;2023-06-04T14:08:18;2.83;;;2.30;;
14613;SDS011;7393;51.446;6.800;2023-06-04T14:10:45;2.03;;;1.88;;
14613;SDS011;7393;51.446;6.800;2023-06-04T14:13:12;3.70;;;2.10;;
14613;SDS011;7393;51.446;6.800;2023-06-04T14:15:38;3.55;;;2.15;;
14613;SDS011;7393;51.446;6.800;2023-06-04T14:18:05;2.30;;;2.10;;
14613;SDS011;7393;51.446;6.800;2023-06-04T14:20:34;2.95;;;2.65;;
14613;SDS011;7393;51.446;6.800;2023-06-04T14:23:01;2.97;;;2.08;;
14613;SDS011;7393;51.446;6.800;2023-06-04T14:25:28;3.67;;;2.22;;
14613;SDS011;7393;51.446;6.800;2023-06-04T14:27:55;2.35;;;2.15;;
14613;SDS011;7393;51.446;6.800;2023-06-04T14:30:21;7.55;;;2.22;;
14613;SDS011;7393;51.446;6.800;2023-06-04T14:32:48;3.28;;;2.50;;
14613;SDS011;7393;51.446;6.800;2023-06-04T14:35:15;2.35;;;2.00;;
14613;SDS011;7393;51.446;6.800;2023-06-04T14:37:43;4.20;;;2.25;;
14613;SDS011;7393;51.446;6.800;2023-06-04T14:40:10;3.67;;;2.00;;
14613;SDS011;7393;51.446;6.800;2023-06-04T14:42:37;2.88;;;1.70;;
14613;SDS011;7393;51.446;6.800;2023-06-04T14:45:04;2.55;;;2.25;;
14613;SDS011;7393;51.446;6.800;2023-06-04T14:47:31;2.17;;;1.98;;
14613;SDS011;7393;51.446;6.800;2023-06-04T14:49:58;4.72;;;1.95;;
14613;SDS011;7393;51.446;6.800;2023-06-04T14:52:25;2.42;;;1.92;;
14613;SDS011;7393;51.446;6.800;2023-06-04T14:54:54;2.67;;;1.80;;
14613;SDS011;7393;51.446;6.800;2023-06-04T14:57:21;5.18;;;1.88;;
14613;SDS011;7393;51.446;6.800;2023-06-04T14:59:48;1.92;;;1.67;;
14613;SDS011;7393;51.446;6.800;2023-06-04T15:02:15;2.83;;;2.00;;
14613;SDS011;7393;51.446;6.800;2023-06-04T15:04:44;2.25;;;1.80;;